Time;durP1;ratioP1;P1;durP2;ratioP2;P2;SDS_P1;SDS_P2;PMS_P1;PMS_P2;Temp;Humidity;BMP_temperature;BMP_pressure;BME280_temperature;BME280_humidity;BME280_pressure;Samples;Min_cycle;Max_cycle;Signal;HPM_P1;HPM_P2
2022/07/31 00:00:14;;;;;;;38.22;2.25;;;;;;;;;;5086395;28;20112;-67
2022/07/31 00:02:40;;;;;;;19.55;1.52;;;;;;;;;;5087510;28;20400;-70
2022/07/31 00:05:07;;;;;;;21.10;1.67;;;;;;;;;;5090878;28;20044;-65
2022/07/31 00:07:34;;;;;;;35.67;2.28;;;;;;;;;;5086071;28;20151;-66
2022/07/31 00:10:00;;;;;;;9.23;0.80;;;;;;;;;;5086904;28;20065;-65
2022/07/31 00:12:27;;;;;;;80.75;4.85;;;;;;;;;;5087812;28;20036;-64
2022/07/31 00:14:53;;;;;;;74.72;4.63;;;;;;;;;;5085762;28;20043;-63
2022/07/31 00:17:20;;;;;;;24.02;1.48;;;;;;;;;;5091250;28;20518;-63
2022/07/31 00:19:46;;;;;;;37.67;2.45;;;;;;;;;;5086543;28;20574;-63
2022/07/31 00:26:06;;;;;;;21.30;1.48;;;;;;;;;;5090943;28;20047;-64
2022/07/31 00:28:33;;;;;;;27.15;1.75;;;;;;;;;;5086443;28;20127;-65
2022/07/31 00:30:59;;;;;;;33.10;2.03;;;;;;;;;;5084537;28;20051;-65
2022/07/31 00:33:26;;;;;;;33.55;2.92;;;;;;;;;;5084797;28;20063;-66
2022/07/31 00:35:53;;;;;;;50.25;3.97;;;;;;;;;;5084728;28;20067;-65
2022/07/31 00:38:19;;;;;;;34.20;2.10;;;;;;;;;;5090016;28;20102;-65
2022/07/31 00:40:53;;;;;;;47.20;3.00;;;;;;;;;;5086869;28;20083;-65
2022/07/31 00:43:20;;;;;;;40.95;2.55;;;;;;;;;;5086621;28;20044;-66
2022/07/31 00:45:48;;;;;;;7.32;0.65;;;;;;;;;;5086626;28;20060;-66
2022/07/31 00:48:24;;;;;;;32.75;2.08;;;;;;;;;;5084876;28;20063;-65
2022/07/31 00:50:52;;;;;;;29.90;2.97;;;;;;;;;;5085344;28;20461;-63
2022/07/31 00:53:19;;;;;;;10.35;1.13;;;;;;;;;;5089297;28;20101;-62
2022/07/31 00:55:45;;;;;;;39.38;2.47;;;;;;;;;;5085792;28;20044;-63
2022/07/31 00:58:18;;;;;;;16.67;1.13;;;;;;;;;;5084994;28;20408;-61
2022/07/31 01:00:44;;;;;;;17.30;1.13;;;;;;;;;;5086248;28;20032;-61
2022/07/31 01:03:11;;;;;;;20.13;1.20;;;;;;;;;;5085828;28;20440;-63
2022/07/31 01:05:37;;;;;;;50.60;3.05;;;;;;;;;;5087591;28;20093;-64
2022/07/31 01:08:04;;;;;;;25.92;2.08;;;;;;;;;;5089141;28;20138;-64
2022/07/31 01:10:34;;;;;;;20.20;1.40;;;;;;;;;;5084500;28;20441;-64
2022/07/31 01:13:03;;;;;;;21.10;2.00;;;;;;;;;;5086136;28;20044;-63
2022/07/31 01:15:30;;;;;;;7.25;1.25;;;;;;;;;;5084948;28;20370;-62
2022/07/31 01:17:57;;;;;;;29.27;3.22;;;;;;;;;;5085225;28;20118;-61
2022/07/31 01:20:24;;;;;;;35.50;2.17;;;;;;;;;;5088884;28;20101;-66
2022/07/31 01:23:03;;;;;;;17.23;1.38;;;;;;;;;;5085999;28;20071;-65
2022/07/31 01:25:56;;;;;;;28.70;1.83;;;;;;;;;;5086368;28;20079;-64
2022/07/31 01:28:47;;;;;;;45.10;2.80;;;;;;;;;;5088168;28;20040;-64
2022/07/31 01:31:24;;;;;;;22.73;1.75;;;;;;;;;;5087748;28;20052;-65
2022/07/31 01:34:07;;;;;;;55.35;3.28;;;;;;;;;;5087956;28;20063;-65
2022/07/31 01:36:36;;;;;;;37.50;2.33;;;;;;;;;;5087870;28;20485;-65
2022/07/31 01:39:04;;;;;;;49.55;3.55;;;;;;;;;;5088039;28;20039;-64
2022/07/31 01:41:34;;;;;;;37.50;2.20;;;;;;;;;;5090237;28;20055;-64
2022/07/31 01:44:02;;;;;;;20.20;1.38;;;;;;;;;;5091111;28;20115;-64
2022/07/31 01:46:29;;;;;;;44.53;2.92;;;;;;;;;;5087395;28;20052;-64
2022/07/31 01:49:03;;;;;;;52.42;3.13;;;;;;;;;;5087648;28;20044;-66
2022/07/31 01:51:30;;;;;;;20.98;1.30;;;;;;;;;;5087863;28;20039;-62
2022/07/31 01:53:58;;;;;;;80.72;4.82;;;;;;;;;;5087031;28;20416;-62
2022/07/31 01:56:25;;;;;;;32.90;3.08;;;;;;;;;;5092387;28;20086;-63
2022/07/31 01:58:53;;;;;;;16.00;1.25;;;;;;;;;;5089684;28;20066;-61
2022/07/31 02:01:41;;;;;;;19.42;1.23;;;;;;;;;;5088160;28;20142;-61
2022/07/31 02:04:08;;;;;;;12.40;0.93;;;;;;;;;;5087778;28;20405;-63
2022/07/31 02:06:37;;;;;;;29.85;2.17;;;;;;;;;;5087975;28;20184;-62
2022/07/31 02:09:03;;;;;;;9.02;0.63;;;;;;;;;;5087731;28;20393;-63
2022/07/31 02:11:30;;;;;;;16.45;1.05;;;;;;;;;;5091030;28;20070;-61
2022/07/31 02:13:58;;;;;;;40.10;2.92;;;;;;;;;;5089664;28;20131;-61
2022/07/31 02:16:27;;;;;;;20.25;1.30;;;;;;;;;;5087134;28;20068;-62
2022/07/31 02:19:02;;;;;;;45.08;3.15;;;;;;;;;;5087445;28;20039;-62
2022/07/31 02:21:29;;;;;;;22.45;1.38;;;;;;;;;;5088404;28;20036;-61
2022/07/31 02:23:56;;;;;;;32.72;2.03;;;;;;;;;;5074390;28;20056;-61
2022/07/31 02:26:23;;;;;;;51.25;3.22;;;;;;;;;;5092381;28;20060;-62
2022/07/31 02:28:51;;;;;;;15.73;1.23;;;;;;;;;;5089900;28;20108;-63
2022/07/31 02:31:20;;;;;;;18.65;1.27;;;;;;;;;;5092858;28;20074;-62
2022/07/31 02:33:47;;;;;;;38.13;2.53;;;;;;;;;;5086410;28;20067;-61
2022/07/31 02:36:17;;;;;;;25.23;1.65;;;;;;;;;;5086645;28;20044;-61
2022/07/31 02:38:44;;;;;;;47.92;2.92;;;;;;;;;;5087084;28;20503;-61
2022/07/31 02:41:11;;;;;;;36.60;2.33;;;;;;;;;;5091484;28;20048;-62
2022/07/31 02:43:38;;;;;;;12.95;0.88;;;;;;;;;;5088639;28;20036;-61
2022/07/31 02:46:14;;;;;;;28.05;2.63;;;;;;;;;;5088556;28;20040;-63
2022/07/31 02:48:41;;;;;;;21.05;1.52;;;;;;;;;;5087049;28;20043;-65
2022/07/31 02:51:11;;;;;;;19.67;1.20;;;;;;;;;;5087336;28;20139;-65
2022/07/31 02:53:39;;;;;;;49.00;2.88;;;;;;;;;;5087845;28;20047;-65
2022/07/31 02:56:08;;;;;;;28.17;1.80;;;;;;;;;;5091878;28;20040;-66
2022/07/31 02:58:38;;;;;;;12.68;0.85;;;;;;;;;;5086764;28;20037;-66
2022/07/31 03:01:04;;;;;;;58.35;3.47;;;;;;;;;;5087295;28;20505;-64
2022/07/31 03:03:32;;;;;;;19.40;1.40;;;;;;;;;;5086339;28;20508;-66
2022/07/31 03:05:59;;;;;;;79.00;31.42;;;;;;;;;;5086469;28;20048;-66
2022/07/31 03:08:26;;;;;;;103.35;31.30;;;;;;;;;;5090953;28;20040;-65
2022/07/31 03:10:57;;;;;;;66.32;28.40;;;;;;;;;;5088229;28;20061;-68
2022/07/31 03:13:26;;;;;;;78.32;27.88;;;;;;;;;;5086241;28;20082;-62
2022/07/31 03:15:53;;;;;;;77.93;31.10;;;;;;;;;;5087398;28;20102;-63
2022/07/31 03:18:20;;;;;;;90.28;33.30;;;;;;;;;;5086074;28;20130;-62
2022/07/31 03:20:50;;;;;;;109.65;33.33;;;;;;;;;;5087773;28;20153;-61
2022/07/31 03:23:19;;;;;;;121.78;35.15;;;;;;;;;;5085925;28;20048;-63
2022/07/31 03:25:52;;;;;;;84.57;33.05;;;;;;;;;;5090814;28;20055;-62
2022/07/31 03:28:20;;;;;;;115.72;31.90;;;;;;;;;;5085855;28;20460;-62
2022/07/31 03:30:49;;;;;;;95.03;32.90;;;;;;;;;;5087177;28;20033;-66
2022/07/31 03:33:21;;;;;;;86.95;30.55;;;;;;;;;;5087250;28;20040;-63
2022/07/31 03:35:48;;;;;;;127.38;32.58;;;;;;;;;;5085826;28;20480;-64
2022/07/31 03:38:14;;;;;;;78.65;31.13;;;;;;;;;;5104368;28;20094;-65
2022/07/31 03:41:03;;;;;;;133.85;32.85;;;;;;;;;;5088802;28;20059;-62
2022/07/31 03:43:31;;;;;;;94.35;27.92;;;;;;;;;;5087547;28;20484;-62
2022/07/31 03:46:14;;;;;;;129.27;28.23;;;;;;;;;;5085258;28;20082;-62
2022/07/31 03:48:41;;;;;;;104.07;20.88;;;;;;;;;;5084702;28;20036;-66
2022/07/31 03:51:08;;;;;;;95.13;22.23;;;;;;;;;;5085337;28;20048;-67
2022/07/31 03:53:35;;;;;;;137.52;22.13;;;;;;;;;;5087932;28;20498;-66
2022/07/31 03:56:04;;;;;;;26.35;3.45;;;;;;;;;;5089146;28;20036;-65
2022/07/31 03:58:30;;;;;;;14.35;1.02;;;;;;;;;;5087750;28;20044;-65
2022/07/31 04:00:57;;;;;;;17.23;1.05;;;;;;;;;;5086354;28;20050;-66
2022/07/31 04:03:29;;;;;;;24.88;1.63;;;;;;;;;;5085248;28;20043;-64
2022/07/31 04:06:14;;;;;;;42.97;2.75;;;;;;;;;;5086428;28;20047;-63
2022/07/31 04:08:40;;;;;;;54.38;3.38;;;;;;;;;;5088411;28;20043;-63
2022/07/31 04:11:07;;;;;;;10.07;0.68;;;;;;;;;;5089738;28;20048;-65
2022/07/31 04:13:35;;;;;;;26.42;1.77;;;;;;;;;;5085151;28;20131;-63
2022/07/31 04:16:02;;;;;;;13.02;0.90;;;;;;;;;;5085164;28;20187;-63
2022/07/31 04:18:29;;;;;;;60.67;10.65;;;;;;;;;;5084906;28;20127;-63
2022/07/31 04:20:55;;;;;;;62.50;3.80;;;;;;;;;;5084373;28;20131;-65
2022/07/31 04:23:22;;;;;;;101.03;41.22;;;;;;;;;;5089855;28;20040;-62
2022/07/31 04:26:18;;;;;;;132.20;50.50;;;;;;;;;;5065044;28;20049;-64
2022/07/31 04:29:01;;;;;;;7.63;0.57;;;;;;;;;;5052079;28;20482;-61
2022/07/31 04:31:28;;;;;;;20.67;1.35;;;;;;;;;;5067999;28;20075;-62
2022/07/31 04:33:56;;;;;;;22.55;1.40;;;;;;;;;;5063508;28;20173;-62
2022/07/31 04:36:23;;;;;;;22.77;1.42;;;;;;;;;;5056873;28;20119;-63
2022/07/31 04:38:58;;;;;;;45.25;2.67;;;;;;;;;;5051080;28;20053;-63
2022/07/31 04:41:25;;;;;;;15.25;0.98;;;;;;;;;;5052314;28;20053;-62
2022/07/31 04:43:51;;;;;;;17.73;1.10;;;;;;;;;;5039465;28;20501;-64
2022/07/31 04:46:18;;;;;;;44.67;2.92;;;;;;;;;;5056715;28;20556;-62
2022/07/31 04:48:44;;;;;;;83.47;40.60;;;;;;;;;;5056753;28;20047;-60
2022/07/31 04:51:15;;;;;;;66.22;31.20;;;;;;;;;;5038292;28;20044;-64
2022/07/31 04:53:42;;;;;;;99.03;30.08;;;;;;;;;;5039293;28;20040;-60
2022/07/31 04:58:53;;;;;;;94.93;36.53;;;;;;;;;;5085347;28;20051;-59
2022/07/31 05:01:20;;;;;;;80.05;34.83;;;;;;;;;;5064535;28;20068;-58
2022/07/31 05:03:47;;;;;;;67.25;33.30;;;;;;;;;;5072671;28;20032;-62
2022/07/31 05:06:13;;;;;;;87.63;31.85;;;;;;;;;;5088771;28;20044;-63
2022/07/31 05:08:40;;;;;;;94.43;33.60;;;;;;;;;;5091425;28;20074;-62
2022/07/31 05:11:22;;;;;;;71.85;31.70;;;;;;;;;;5075634;28;20512;-63
2022/07/31 05:13:53;;;;;;;117.10;37.78;;;;;;;;;;5090009;28;20479;-62
2022/07/31 05:16:20;;;;;;;81.63;35.83;;;;;;;;;;5089840;28;20068;-63
2022/07/31 05:18:47;;;;;;;75.22;33.47;;;;;;;;;;5086900;28;20048;-63
2022/07/31 05:21:32;;;;;;;15.18;1.00;;;;;;;;;;5083619;28;20051;-64
2022/07/31 05:24:41;;;;;;;21.13;1.35;;;;;;;;;;5050015;28;20041;-64
2022/07/31 05:27:11;;;;;;;24.73;2.03;;;;;;;;;;5050892;28;20599;-63
2022/07/31 05:29:40;;;;;;;41.92;2.55;;;;;;;;;;5051390;28;20523;-64
2022/07/31 05:32:06;;;;;;;38.13;2.33;;;;;;;;;;5033728;28;20512;-64
2022/07/31 05:34:35;;;;;;;85.90;5.03;;;;;;;;;;5024812;28;20136;-64
2022/07/31 05:37:02;;;;;;;26.73;1.70;;;;;;;;;;5025391;28;20594;-64
2022/07/31 05:39:31;;;;;;;36.83;2.30;;;;;;;;;;5038078;28;20493;-63
2022/07/31 05:42:16;;;;;;;46.85;2.88;;;;;;;;;;5049010;28;20126;-64
2022/07/31 05:45:01;;;;;;;40.13;2.42;;;;;;;;;;5028196;28;20042;-63
2022/07/31 05:47:28;;;;;;;20.48;1.58;;;;;;;;;;5049433;28;20048;-64
2022/07/31 05:50:08;;;;;;;35.63;2.20;;;;;;;;;;5050094;28;20406;-64
2022/07/31 05:52:35;;;;;;;49.92;3.67;;;;;;;;;;5048581;28;20044;-63
2022/07/31 05:55:11;;;;;;;41.72;2.47;;;;;;;;;;5050912;28;20579;-64
2022/07/31 05:58:07;;;;;;;11.60;0.80;;;;;;;;;;5030397;28;20053;-65
2022/07/31 06:00:33;;;;;;;45.22;2.70;;;;;;;;;;5050781;28;20102;-65
2022/07/31 06:03:00;;;;;;;19.08;1.25;;;;;;;;;;5087789;28;20045;-65
2022/07/31 06:05:45;;;;;;;19.23;1.17;;;;;;;;;;5090909;28;20071;-66
2022/07/31 06:08:12;;;;;;;27.15;1.65;;;;;;;;;;5091778;28;20082;-65
2022/07/31 06:10:42;;;;;;;17.15;1.10;;;;;;;;;;5087091;28;20052;-66
2022/07/31 06:13:10;;;;;;;13.40;0.82;;;;;;;;;;5088020;28;20052;-65
2022/07/31 06:15:36;;;;;;;38.10;2.35;;;;;;;;;;5088428;28;20123;-65
2022/07/31 06:18:08;;;;;;;98.13;42.08;;;;;;;;;;5087543;28;20117;-65
2022/07/31 06:20:35;;;;;;;31.48;1.95;;;;;;;;;;5090718;28;20181;-66
2022/07/31 06:23:04;;;;;;;41.35;2.55;;;;;;;;;;5089737;28;20135;-65
2022/07/31 06:25:56;;;;;;;38.70;3.70;;;;;;;;;;5091245;28;20048;-64
2022/07/31 06:28:24;;;;;;;43.65;3.30;;;;;;;;;;5087409;28;20052;-64
2022/07/31 06:31:20;;;;;;;48.38;2.83;;;;;;;;;;5086984;28;20122;-63
2022/07/31 06:33:49;;;;;;;118.65;45.03;;;;;;;;;;5087471;28;20401;-64
2022/07/31 06:36:20;;;;;;;92.93;39.95;;;;;;;;;;5091212;28;20043;-64
2022/07/31 06:38:56;;;;;;;126.13;45.33;;;;;;;;;;5087109;28;20043;-63
2022/07/31 06:41:45;;;;;;;92.00;41.95;;;;;;;;;;5092856;28;20036;-63
2022/07/31 06:44:27;;;;;;;97.68;38.60;;;;;;;;;;5090727;28;20143;-64
2022/07/31 06:47:15;;;;;;;112.10;42.00;;;;;;;;;;5092661;28;20450;-64
2022/07/31 06:50:00;;;;;;;77.35;36.80;;;;;;;;;;5090389;28;20148;-64
2022/07/31 06:52:32;;;;;;;120.13;40.30;;;;;;;;;;5089937;28;20040;-65
2022/07/31 06:55:00;;;;;;;83.95;36.92;;;;;;;;;;5090746;28;20093;-64
2022/07/31 06:57:27;;;;;;;97.28;43.45;;;;;;;;;;5088422;28;20091;-66
2022/07/31 06:59:54;;;;;;;106.05;43.47;;;;;;;;;;5088092;28;20063;-64
2022/07/31 07:02:20;;;;;;;107.30;37.97;;;;;;;;;;5091659;28;20048;-66
2022/07/31 07:04:47;;;;;;;116.57;43.30;;;;;;;;;;5086936;28;20072;-65
2022/07/31 07:07:33;;;;;;;94.88;40.33;;;;;;;;;;5089903;28;20044;-66
2022/07/31 07:10:00;;;;;;;90.28;41.65;;;;;;;;;;5090568;28;20139;-64
2022/07/31 07:12:47;;;;;;;129.32;45.67;;;;;;;;;;5036279;28;20460;-65
2022/07/31 07:15:14;;;;;;;117.35;47.17;;;;;;;;;;5044818;28;20041;-65
2022/07/31 07:17:40;;;;;;;134.95;47.58;;;;;;;;;;5047248;28;20179;-65
2022/07/31 07:20:13;;;;;;;137.27;49.88;;;;;;;;;;5049394;28;20067;-66
2022/07/31 07:22:39;;;;;;;143.25;47.42;;;;;;;;;;5044556;28;20053;-66
2022/07/31 07:25:07;;;;;;;123.03;46.05;;;;;;;;;;5028166;28;20041;-66
2022/07/31 07:27:33;;;;;;;104.93;45.35;;;;;;;;;;5044903;28;20562;-66
2022/07/31 07:30:01;;;;;;;120.72;49.38;;;;;;;;;;5044630;28;20049;-66
2022/07/31 07:32:28;;;;;;;172.82;55.55;;;;;;;;;;5045390;28;20045;-66
2022/07/31 07:34:54;;;;;;;117.93;49.83;;;;;;;;;;5046547;28;20115;-66
2022/07/31 07:37:46;;;;;;;157.00;53.55;;;;;;;;;;5028090;28;20045;-66
2022/07/31 07:40:15;;;;;;;122.32;48.63;;;;;;;;;;5044721;28;20037;-66
2022/07/31 07:42:42;;;;;;;133.45;52.78;;;;;;;;;;5044394;28;20123;-64
2022/07/31 07:45:09;;;;;;;147.32;50.40;;;;;;;;;;5024456;28;20092;-65
2022/07/31 07:47:35;;;;;;;165.82;54.95;;;;;;;;;;5047784;28;20130;-65
2022/07/31 07:50:22;;;;;;;158.50;47.05;;;;;;;;;;5059626;28;20134;-65
2022/07/31 07:53:14;;;;;;;111.10;43.28;;;;;;;;;;5090861;28;20611;-65
2022/07/31 07:56:07;;;;;;;97.40;42.75;;;;;;;;;;5047715;28;20049;-65
2022/07/31 07:59:10;;;;;;;90.90;41.00;;;;;;;;;;5029477;28;20045;-65
2022/07/31 08:01:59;;;;;;;103.22;41.20;;;;;;;;;;5045461;28;20142;-65
2022/07/31 08:04:28;;;;;;;93.47;42.42;;;;;;;;;;5031608;28;20045;-66
2022/07/31 08:06:55;;;;;;;93.65;41.97;;;;;;;;;;5023723;28;20128;-66
2022/07/31 08:09:25;;;;;;;122.00;44.20;;;;;;;;;;5023294;28;20029;-66
2022/07/31 08:11:55;;;;;;;134.57;44.53;;;;;;;;;;5044465;28;20088;-66
2022/07/31 08:14:41;;;;;;;145.73;49.25;;;;;;;;;;5042872;28;20037;-64
2022/07/31 08:17:26;;;;;;;116.72;42.10;;;;;;;;;;5045742;28;20071;-65
2022/07/31 08:19:53;;;;;;;170.85;49.25;;;;;;;;;;5032607;28;20264;-64
2022/07/31 08:22:19;;;;;;;126.43;46.17;;;;;;;;;;5039557;28;20440;-64
2022/07/31 08:24:46;;;;;;;110.72;42.75;;;;;;;;;;5023230;28;20041;-64
2022/07/31 08:27:25;;;;;;;121.13;41.50;;;;;;;;;;5022771;28;20080;-65
2022/07/31 08:30:06;;;;;;;105.15;41.88;;;;;;;;;;5027143;28;20046;-65
2022/07/31 08:32:34;;;;;;;144.20;45.13;;;;;;;;;;5052413;28;20048;-65
2022/07/31 08:35:04;;;;;;;111.93;46.83;;;;;;;;;;5090979;28;20040;-65
2022/07/31 08:37:30;;;;;;;146.60;33.35;;;;;;;;;;5085988;28;20048;-66
2022/07/31 08:40:19;;;;;;;149.73;28.73;;;;;;;;;;5084964;28;20127;-66
2022/07/31 08:42:46;;;;;;;140.88;21.83;;;;;;;;;;5086247;28;20065;-65
2022/07/31 08:45:13;;;;;;;29.00;2.15;;;;;;;;;;5089013;28;20037;-66
2022/07/31 08:47:47;;;;;;;22.23;1.38;;;;;;;;;;5086954;28;20048;-67
2022/07/31 08:50:21;;;;;;;47.85;2.97;;;;;;;;;;5089569;28;20101;-66
2022/07/31 08:52:50;;;;;;;20.05;1.30;;;;;;;;;;5085071;28;20044;-67
2022/07/31 08:55:39;;;;;;;41.13;2.55;;;;;;;;;;5083897;28;20083;-64
2022/07/31 08:58:25;;;;;;;29.13;2.25;;;;;;;;;;5084953;28;20044;-64
2022/07/31 09:00:52;;;;;;;48.20;3.22;;;;;;;;;;5086205;28;20040;-64
2022/07/31 09:03:19;;;;;;;14.73;1.05;;;;;;;;;;5087014;28;20094;-64
2022/07/31 09:05:56;;;;;;;29.23;2.20;;;;;;;;;;5085305;28;20044;-64
2022/07/31 09:08:22;;;;;;;30.98;2.53;;;;;;;;;;5103321;28;20199;-64
2022/07/31 09:11:00;;;;;;;30.48;2.25;;;;;;;;;;5084008;28;20036;-64
2022/07/31 09:13:28;;;;;;;47.33;2.97;;;;;;;;;;5084894;28;20052;-64
2022/07/31 09:15:57;;;;;;;30.40;2.78;;;;;;;;;;5084863;28;20036;-63
2022/07/31 09:18:24;;;;;;;31.92;1.98;;;;;;;;;;5084730;28;20488;-63
2022/07/31 09:21:06;;;;;;;22.15;1.40;;;;;;;;;;5085214;28;20041;-62
2022/07/31 09:23:42;;;;;;;19.83;1.35;;;;;;;;;;5088321;28;20056;-62
2022/07/31 09:26:09;;;;;;;33.03;2.10;;;;;;;;;;5102975;28;20045;-62
2022/07/31 09:28:37;;;;;;;21.83;1.48;;;;;;;;;;5099146;28;20044;-63
2022/07/31 09:31:05;;;;;;;7.72;0.52;;;;;;;;;;5085099;28;20045;-63
2022/07/31 09:33:50;;;;;;;21.85;1.58;;;;;;;;;;5086728;28;20125;-63
2022/07/31 09:36:25;;;;;;;33.47;2.10;;;;;;;;;;5086132;28;20048;-62
2022/07/31 09:38:59;;;;;;;50.53;3.15;;;;;;;;;;5083968;28;20490;-62
2022/07/31 09:41:30;;;;;;;10.25;1.13;;;;;;;;;;5085705;28;20479;-62
2022/07/31 09:44:33;;;;;;;23.33;1.50;;;;;;;;;;5089861;28;20126;-62
2022/07/31 09:47:00;;;;;;;47.20;3.55;;;;;;;;;;5087701;28;20131;-62
2022/07/31 09:49:31;;;;;;;31.88;3.10;;;;;;;;;;5088414;28;20043;-62
2022/07/31 09:51:59;;;;;;;27.98;1.77;;;;;;;;;;5088427;28;20523;-62
2022/07/31 09:54:28;;;;;;;55.05;3.33;;;;;;;;;;5087496;28;20403;-62
2022/07/31 09:57:08;;;;;;;21.92;4.90;;;;;;;;;;5089804;28;20400;-62
2022/07/31 09:59:35;;;;;;;34.30;2.33;;;;;;;;;;5091875;28;20101;-62
2022/07/31 10:02:03;;;;;;;27.65;1.95;;;;;;;;;;5106523;28;20041;-61
2022/07/31 10:04:30;;;;;;;23.80;1.67;;;;;;;;;;5084635;28;20043;-62
2022/07/31 10:06:57;;;;;;;71.07;4.28;;;;;;;;;;5087405;28;20040;-61
2022/07/31 10:09:25;;;;;;;38.50;2.40;;;;;;;;;;5087454;28;20055;-62
2022/07/31 10:12:22;;;;;;;74.30;4.40;;;;;;;;;;5050693;28;20053;-62
2022/07/31 10:14:50;;;;;;;17.27;1.17;;;;;;;;;;5050795;28;20143;-62
2022/07/31 10:17:21;;;;;;;31.95;1.98;;;;;;;;;;5051850;28;20053;-62
2022/07/31 10:20:08;;;;;;;17.10;1.17;;;;;;;;;;5032006;28;20052;-62
2022/07/31 10:22:58;;;;;;;54.85;3.45;;;;;;;;;;5045816;28;20053;-62
2022/07/31 10:25:28;;;;;;;39.10;2.40;;;;;;;;;;5049549;28;20130;-63
2022/07/31 10:27:56;;;;;;;27.90;1.65;;;;;;;;;;5028345;28;20076;-62
2022/07/31 10:30:25;;;;;;;43.03;2.65;;;;;;;;;;5028444;28;20060;-63
2022/07/31 10:32:57;;;;;;;39.35;2.55;;;;;;;;;;5044976;28;20095;-62
2022/07/31 10:35:24;;;;;;;64.63;4.03;;;;;;;;;;5049236;28;20140;-62
2022/07/31 10:38:02;;;;;;;36.63;2.25;;;;;;;;;;5049402;28;20180;-62
2022/07/31 10:40:54;;;;;;;40.30;2.50;;;;;;;;;;5029753;28;20049;-63
2022/07/31 10:43:26;;;;;;;36.40;2.22;;;;;;;;;;5030167;28;20068;-62
2022/07/31 10:46:31;;;;;;;22.48;1.40;;;;;;;;;;5007611;28;20383;-63
2022/07/31 10:49:40;;;;;;;23.15;1.50;;;;;;;;;;5014306;28;20053;-63
2022/07/31 10:52:35;;;;;;;20.88;1.33;;;;;;;;;;4997238;28;20053;-63
2022/07/31 10:55:16;;;;;;;34.97;2.15;;;;;;;;;;5014015;28;20502;-62
2022/07/31 10:58:18;;;;;;;10.60;1.00;;;;;;;;;;4994741;28;20054;-63
2022/07/31 11:01:03;;;;;;;31.38;1.98;;;;;;;;;;4994726;28;20118;-62
2022/07/31 11:03:57;;;;;;;35.38;2.22;;;;;;;;;;4994808;28;20048;-62
2022/07/31 11:06:47;;;;;;;13.35;0.90;;;;;;;;;;4994390;28;20117;-62
2022/07/31 11:09:44;;;;;;;17.05;1.13;;;;;;;;;;4978310;28;20426;-62
2022/07/31 11:12:35;;;;;;;21.83;1.40;;;;;;;;;;4994742;28;20057;-62
2022/07/31 11:15:28;;;;;;;42.85;2.60;;;;;;;;;;4991439;28;20079;-62
2022/07/31 11:18:16;;;;;;;27.40;1.70;;;;;;;;;;4979818;28;20054;-61
2022/07/31 11:21:03;;;;;;;18.50;1.55;;;;;;;;;;4990390;28;20046;-61
2022/07/31 11:23:50;;;;;;;83.93;4.97;;;;;;;;;;4988462;28;20046;-61
2022/07/31 11:26:28;;;;;;;26.00;1.65;;;;;;;;;;5010402;28;20068;-62
2022/07/31 11:29:06;;;;;;;36.83;2.25;;;;;;;;;;5029166;28;20050;-61
2022/07/31 11:31:53;;;;;;;19.20;1.25;;;;;;;;;;5029157;28;20056;-62
2022/07/31 11:34:19;;;;;;;62.30;3.78;;;;;;;;;;5050597;28;20447;-60
2022/07/31 11:36:46;;;;;;;14.10;1.00;;;;;;;;;;5087282;28;20055;-60
2022/07/31 11:39:17;;;;;;;16.65;1.08;;;;;;;;;;5087530;28;20044;-60
2022/07/31 11:41:43;;;;;;;59.63;3.95;;;;;;;;;;5090432;28;20038;-60
2022/07/31 11:44:11;;;;;;;18.60;1.30;;;;;;;;;;5089777;28;20059;-60
2022/07/31 11:46:37;;;;;;;10.98;0.88;;;;;;;;;;5087487;28;20140;-60
2022/07/31 11:49:04;;;;;;;39.10;2.35;;;;;;;;;;5087035;28;20047;-60
2022/07/31 11:51:31;;;;;;;25.92;1.70;;;;;;;;;;5087481;28;20059;-61
2022/07/31 11:53:58;;;;;;;22.80;1.55;;;;;;;;;;5088159;28;20458;-60
2022/07/31 11:56:26;;;;;;;34.60;4.55;;;;;;;;;;5092099;28;20404;-61
2022/07/31 11:58:54;;;;;;;8.43;0.63;;;;;;;;;;5087374;28;20123;-61
2022/07/31 12:01:26;;;;;;;35.47;2.13;;;;;;;;;;5087552;28;20481;-62
2022/07/31 12:03:53;;;;;;;78.78;4.68;;;;;;;;;;5086865;28;20044;-62
2022/07/31 12:06:20;;;;;;;17.85;1.15;;;;;;;;;;5087570;28;20108;-63
2022/07/31 12:08:47;;;;;;;26.83;1.70;;;;;;;;;;5089348;28;20448;-62
2022/07/31 12:11:16;;;;;;;43.10;2.67;;;;;;;;;;5089828;28;20119;-62
2022/07/31 12:13:46;;;;;;;17.23;1.23;;;;;;;;;;5092042;28;20059;-62
2022/07/31 12:16:14;;;;;;;49.83;3.13;;;;;;;;;;5086715;28;20037;-62
2022/07/31 12:18:51;;;;;;;25.98;1.60;;;;;;;;;;5086772;28;20065;-63
2022/07/31 12:21:18;;;;;;;11.50;0.80;;;;;;;;;;5087104;28;20063;-62
2022/07/31 12:23:49;;;;;;;56.42;3.70;;;;;;;;;;5089490;28;20257;-62
2022/07/31 12:26:26;;;;;;;22.02;1.40;;;;;;;;;;5090122;28;20512;-62
2022/07/31 12:29:01;;;;;;;17.42;1.15;;;;;;;;;;5086971;28;20039;-62
2022/07/31 12:31:30;;;;;;;19.83;1.40;;;;;;;;;;5086655;28;20048;-62
2022/07/31 12:33:56;;;;;;;13.73;1.35;;;;;;;;;;5086977;28;20039;-62
2022/07/31 12:36:23;;;;;;;44.53;2.80;;;;;;;;;;5085358;28;20128;-62
2022/07/31 12:38:59;;;;;;;29.27;1.98;;;;;;;;;;5088821;28;20136;-61
2022/07/31 12:41:29;;;;;;;14.00;0.95;;;;;;;;;;5091320;28;20075;-62
2022/07/31 12:44:09;;;;;;;39.38;2.40;;;;;;;;;;5086404;28;20131;-61
2022/07/31 12:46:39;;;;;;;20.75;1.30;;;;;;;;;;5088210;28;20446;-61
2022/07/31 12:49:07;;;;;;;25.33;2.38;;;;;;;;;;5086912;28;20131;-61
2022/07/31 12:51:34;;;;;;;53.33;3.30;;;;;;;;;;5086293;28;20484;-60
2022/07/31 12:54:12;;;;;;;38.38;2.70;;;;;;;;;;5071463;28;20044;-61
2022/07/31 12:56:39;;;;;;;34.55;2.42;;;;;;;;;;5090481;28;20037;-61
2022/07/31 12:59:07;;;;;;;13.55;0.95;;;;;;;;;;5088111;28;20076;-61
2022/07/31 13:01:33;;;;;;;26.80;1.73;;;;;;;;;;5086082;28;20450;-61
2022/07/31 13:04:00;;;;;;;15.82;1.05;;;;;;;;;;5086709;28;20123;-62
2022/07/31 13:06:29;;;;;;;12.95;0.90;;;;;;;;;;5086833;28;20033;-62
2022/07/31 13:08:56;;;;;;;49.67;3.00;;;;;;;;;;5087998;28;20052;-61
2022/07/31 13:11:24;;;;;;;11.57;1.05;;;;;;;;;;5090505;28;20046;-62
2022/07/31 13:13:51;;;;;;;10.93;1.50;;;;;;;;;;5086361;28;20066;-62
2022/07/31 13:16:17;;;;;;;48.33;3.58;;;;;;;;;;5086064;28;20047;-62
2022/07/31 13:18:44;;;;;;;23.15;1.45;;;;;;;;;;5086035;28;20135;-61
2022/07/31 13:21:10;;;;;;;39.08;2.40;;;;;;;;;;5089209;28;20083;-61
2022/07/31 13:23:37;;;;;;;22.25;1.40;;;;;;;;;;5094378;28;20469;-61
2022/07/31 13:26:03;;;;;;;13.57;1.00;;;;;;;;;;5091405;28;20051;-61
2022/07/31 13:28:30;;;;;;;13.63;0.82;;;;;;;;;;5090128;28;20079;-61
2022/07/31 13:30:56;;;;;;;25.13;1.77;;;;;;;;;;5084872;28;20106;-61
2022/07/31 13:33:23;;;;;;;40.47;2.45;;;;;;;;;;5090531;28;20056;-61
2022/07/31 13:35:49;;;;;;;36.25;2.17;;;;;;;;;;5092206;28;20544;-60
2022/07/31 13:38:16;;;;;;;14.90;0.95;;;;;;;;;;5092654;28;20043;-61
2022/07/31 13:43:28;;;;;;;50.35;3.17;;;;;;;;;;5089739;28;20063;-61
2022/07/31 13:45:54;;;;;;;46.35;2.90;;;;;;;;;;5089125;28;20063;-61
2022/07/31 13:48:21;;;;;;;27.58;2.83;;;;;;;;;;5090046;28;20083;-61
2022/07/31 13:50:47;;;;;;;13.50;0.90;;;;;;;;;;5092738;28;20073;-61
2022/07/31 13:53:14;;;;;;;51.28;3.38;;;;;;;;;;5091586;28;20032;-61
2022/07/31 13:55:40;;;;;;;3.45;0.32;;;;;;;;;;5089707;28;20079;-61
2022/07/31 13:58:07;;;;;;;38.67;2.53;;;;;;;;;;5089586;28;20070;-60
2022/07/31 14:00:34;;;;;;;54.05;3.40;;;;;;;;;;5089249;28;20123;-61
2022/07/31 14:03:00;;;;;;;32.33;2.05;;;;;;;;;;5090397;28;20036;-60
2022/07/31 14:05:27;;;;;;;22.95;1.48;;;;;;;;;;5093792;28;20040;-61
2022/07/31 14:07:54;;;;;;;40.30;2.42;;;;;;;;;;5088763;28;20090;-60
2022/07/31 14:10:21;;;;;;;12.95;0.90;;;;;;;;;;5090436;28;20408;-60
2022/07/31 14:12:48;;;;;;;55.58;3.63;;;;;;;;;;5089609;28;20118;-60
2022/07/31 14:15:16;;;;;;;69.03;4.07;;;;;;;;;;5088143;28;20432;-61
2022/07/31 14:17:43;;;;;;;30.27;2.10;;;;;;;;;;5092474;28;20400;-60
2022/07/31 14:20:10;;;;;;;4.13;0.35;;;;;;;;;;5090822;28;20075;-61
2022/07/31 14:22:37;;;;;;;87.30;5.97;;;;;;;;;;5088357;28;20036;-61
2022/07/31 14:25:04;;;;;;;36.13;2.60;;;;;;;;;;5089218;28;20122;-61
2022/07/31 14:27:30;;;;;;;9.07;0.65;;;;;;;;;;5088884;28;20067;-61
2022/07/31 14:29:57;;;;;;;56.63;3.35;;;;;;;;;;5089700;28;20048;-61
2022/07/31 14:32:23;;;;;;;22.70;1.35;;;;;;;;;;5091655;28;20079;-62
2022/07/31 14:34:50;;;;;;;19.98;1.33;;;;;;;;;;5088976;28;20032;-62
2022/07/31 14:37:18;;;;;;;46.97;2.80;;;;;;;;;;5088567;28;20115;-62
2022/07/31 14:39:45;;;;;;;10.10;0.70;;;;;;;;;;5088862;28;20032;-62
2022/07/31 14:42:11;;;;;;;19.00;1.20;;;;;;;;;;5088236;28;20048;-62
2022/07/31 14:44:40;;;;;;;27.73;1.67;;;;;;;;;;5092783;28;20464;-61
2022/07/31 14:47:08;;;;;;;17.48;1.15;;;;;;;;;;5089731;28;20434;-61
2022/07/31 14:49:34;;;;;;;10.18;0.88;;;;;;;;;;5088466;28;20064;-61
2022/07/31 14:52:21;;;;;;;34.50;2.17;;;;;;;;;;5088115;28;20043;-61
2022/07/31 14:54:48;;;;;;;22.98;1.38;;;;;;;;;;5088368;28;20040;-62
2022/07/31 14:57:14;;;;;;;58.55;3.50;;;;;;;;;;5087889;28;20119;-62
2022/07/31 14:59:48;;;;;;;40.80;2.47;;;;;;;;;;5091258;28;20040;-62
2022/07/31 15:02:15;;;;;;;21.38;1.48;;;;;;;;;;5091047;28;20035;-62